sensor_id;sensor_type;location;lat;lon;timestamp;pressure;altitude;pressure_sealevel;temperature;humidity
21644;BME280;10983;51.982;9.226;2024-03-25T00:00:19;98861.47;;;5.73;100.00
21644;BME280;10983;51.982;9.226;2024-03-25T00:02:46;98868.25;;;5.69;100.00
21644;BME280;10983;51.982;9.226;2024-03-25T00:05:14;98877.41;;;5.67;100.00
21644;BME280;10983;51.982;9.226;2024-03-25T00:07:41;98883.69;;;5.66;100.00
21644;BME280;10983;51.982;9.226;2024-03-25T00:10:09;98886.56;;;5.53;100.00
21644;BME280;10983;51.982;9.226;2024-03-25T00:12:35;98896.84;;;5.43;100.00
21644;BME280;10983;51.982;9.226;2024-03-25T00:15:02;98858.34;;;5.31;100.00
21644;BME280;10983;51.982;9.226;2024-03-25T00:17:27;98890.69;;;5.49;100.00
21644;BME280;10983;51.982;9.226;2024-03-25T00:19:54;98892.16;;;5.45;100.00
21644;BME280;10983;51.982;9.226;2024-03-25T00:22:20;98896.19;;;5.48;100.00
21644;BME280;10983;51.982;9.226;2024-03-25T00:24:47;98891.34;;;5.45;100.00
21644;BME280;10983;51.982;9.226;2024-03-25T00:27:15;98899.25;;;5.45;100.00
21644;BME280;10983;51.982;9.226;2024-03-25T00:29:42;98881.97;;;5.37;100.00
21644;BME280;10983;51.982;9.226;2024-03-25T00:32:09;98899.72;;;5.42;100.00
21644;BME280;10983;51.982;9.226;2024-03-25T00:34:36;98900.53;;;5.42;100.00
21644;BME280;10983;51.982;9.226;2024-03-25T00:37:03;98895.03;;;5.44;100.00
21644;BME280;10983;51.982;9.226;2024-03-25T00:39:30;98881.97;;;5.49;100.00
21644;BME280;10983;51.982;9.226;2024-03-25T00:41:57;98890.47;;;5.51;100.00
21644;BME280;10983;51.982;9.226;2024-03-25T00:44:26;98884.16;;;5.52;100.00
21644;BME280;10983;51.982;9.226;2024-03-25T00:46:53;98882.88;;;5.54;100.00
21644;BME280;10983;51.982;9.226;2024-03-25T00:49:19;98897.44;;;5.56;100.00
21644;BME280;10983;51.982;9.226;2024-03-25T00:51:46;98880.38;;;5.59;100.00
21644;BME280;10983;51.982;9.226;2024-03-25T00:54:13;98884.38;;;5.61;100.00
21644;BME280;10983;51.982;9.226;2024-03-25T00:56:39;98882.78;;;5.60;100.00
21644;BME280;10983;51.982;9.226;2024-03-25T00:59:05;98884.38;;;5.61;100.00
21644;BME280;10983;51.982;9.226;2024-03-25T01:01:33;98869.72;;;5.65;100.00
21644;BME280;10983;51.982;9.226;2024-03-25T01:04:01;98861.59;;;5.67;100.00
21644;BME280;10983;51.982;9.226;2024-03-25T01:06:27;98864.81;;;5.69;100.00
21644;BME280;10983;51.982;9.226;2024-03-25T01:08:53;98860.31;;;5.69;100.00
21644;BME280;10983;51.982;9.226;2024-03-25T01:11:19;98849.00;;;5.69;100.00
21644;BME280;10983;51.982;9.226;2024-03-25T01:13:46;98850.94;;;5.73;100.00
21644;BME280;10983;51.982;9.226;2024-03-25T01:16:12;98848.28;;;5.73;100.00
21644;BME280;10983;51.982;9.226;2024-03-25T01:18:40;98845.44;;;5.75;100.00
21644;BME280;10983;51.982;9.226;2024-03-25T01:21:06;98854.34;;;5.74;100.00
21644;BME280;10983;51.982;9.226;2024-03-25T01:23:32;98846.44;;;5.74;100.00
21644;BME280;10983;51.982;9.226;2024-03-25T01:25:59;98851.88;;;5.79;100.00
21644;BME280;10983;51.982;9.226;2024-03-25T01:28:27;98843.25;;;5.83;100.00
21644;BME280;10983;51.982;9.226;2024-03-25T01:30:52;98837.97;;;5.83;100.00
21644;BME280;10983;51.982;9.226;2024-03-25T01:33:19;98846.38;;;5.80;100.00
21644;BME280;10983;51.982;9.226;2024-03-25T01:35:46;98847.97;;;5.81;100.00
21644;BME280;10983;51.982;9.226;2024-03-25T01:38:13;98845.56;;;5.80;100.00
21644;BME280;10983;51.982;9.226;2024-03-25T01:40:38;98851.88;;;5.79;100.00
21644;BME280;10983;51.982;9.226;2024-03-25T01:43:05;98844.63;;;5.74;100.00
21644;BME280;10983;51.982;9.226;2024-03-25T01:45:33;98847.25;;;5.74;100.00
21644;BME280;10983;51.982;9.226;2024-03-25T01:48:02;98852.09;;;5.77;100.00
21644;BME280;10983;51.982;9.226;2024-03-25T01:50:28;98846.84;;;5.77;100.00
21644;BME280;10983;51.982;9.226;2024-03-25T01:52:57;98840.19;;;5.75;100.00
21644;BME280;10983;51.982;9.226;2024-03-25T01:55:26;98847.97;;;5.81;100.00
21644;BME280;10983;51.982;9.226;2024-03-25T01:57:54;98853.50;;;5.80;100.00
21644;BME280;10983;51.982;9.226;2024-03-25T02:00:20;98864.81;;;5.80;100.00
21644;BME280;10983;51.982;9.226;2024-03-25T02:02:47;98854.03;;;5.82;100.00
21644;BME280;10983;51.982;9.226;2024-03-25T02:05:14;98858.28;;;5.83;100.00
21644;BME280;10983;51.982;9.226;2024-03-25T02:07:43;98867.81;;;5.84;100.00
21644;BME280;10983;51.982;9.226;2024-03-25T02:10:11;98862.06;;;5.87;100.00
21644;BME280;10983;51.982;9.226;2024-03-25T02:12:40;98868.28;;;5.81;100.00
21644;BME280;10983;51.982;9.226;2024-03-25T02:15:07;98866.31;;;5.76;100.00
21644;BME280;10983;51.982;9.226;2024-03-25T02:17:34;98886.28;;;5.84;100.00
21644;BME280;10983;51.982;9.226;2024-03-25T02:20:00;98886.50;;;5.82;100.00
21644;BME280;10983;51.982;9.226;2024-03-25T02:22:27;98872.63;;;5.75;100.00
21644;BME280;10983;51.982;9.226;2024-03-25T02:24:53;98864.56;;;5.59;100.00
21644;BME280;10983;51.982;9.226;2024-03-25T02:27:24;98893.59;;;5.82;100.00
21644;BME280;10983;51.982;9.226;2024-03-25T02:29:50;98906.56;;;5.83;100.00
21644;BME280;10983;51.982;9.226;2024-03-25T02:32:16;98901.88;;;5.85;100.00
21644;BME280;10983;51.982;9.226;2024-03-25T02:34:46;98907.84;;;5.81;100.00
21644;BME280;10983;51.982;9.226;2024-03-25T02:37:13;98879.47;;;5.65;100.00
21644;BME280;10983;51.982;9.226;2024-03-25T02:39:39;98909.34;;;5.77;100.00
21644;BME280;10983;51.982;9.226;2024-03-25T02:42:06;98904.91;;;5.71;100.00
21644;BME280;10983;51.982;9.226;2024-03-25T02:44:33;98898.84;;;5.70;100.00
21644;BME280;10983;51.982;9.226;2024-03-25T02:47:01;98915.81;;;5.74;100.00
21644;BME280;10983;51.982;9.226;2024-03-25T02:49:27;98917.63;;;5.74;100.00
21644;BME280;10983;51.982;9.226;2024-03-25T02:51:54;98917.31;;;5.70;100.00
21644;BME280;10983;51.982;9.226;2024-03-25T02:54:19;98925.34;;;5.75;100.00
21644;BME280;10983;51.982;9.226;2024-03-25T02:56:47;98925.16;;;5.77;100.00
21644;BME280;10983;51.982;9.226;2024-03-25T02:59:12;98928.59;;;5.77;100.00
21644;BME280;10983;51.982;9.226;2024-03-25T03:01:40;98941.06;;;5.82;100.00
21644;BME280;10983;51.982;9.226;2024-03-25T03:04:06;98936.84;;;5.81;100.00
21644;BME280;10983;51.982;9.226;2024-03-25T03:06:32;98951.38;;;5.83;100.00
21644;BME280;10983;51.982;9.226;2024-03-25T03:08:58;98957.81;;;5.87;100.00
21644;BME280;10983;51.982;9.226;2024-03-25T03:11:25;98968.38;;;5.87;100.00
21644;BME280;10983;51.982;9.226;2024-03-25T03:13:50;98972.06;;;5.86;100.00
21644;BME280;10983;51.982;9.226;2024-03-25T03:16:17;98970.81;;;5.89;100.00
21644;BME280;10983;51.982;9.226;2024-03-25T03:18:44;98957.50;;;5.84;100.00
21644;BME280;10983;51.982;9.226;2024-03-25T03:21:10;98979.50;;;5.89;100.00
21644;BME280;10983;51.982;9.226;2024-03-25T03:23:36;98971.38;;;5.91;100.00
21644;BME280;10983;51.982;9.226;2024-03-25T03:26:03;98973.88;;;5.86;100.00
21644;BME280;10983;51.982;9.226;2024-03-25T03:28:28;98966.78;;;5.86;100.00
21644;BME280;10983;51.982;9.226;2024-03-25T03:30:55;98970.91;;;5.82;100.00
21644;BME280;10983;51.982;9.226;2024-03-25T03:33:21;98973.88;;;5.86;100.00
21644;BME280;10983;51.982;9.226;2024-03-25T03:35:49;98967.75;;;5.74;100.00
21644;BME280;10983;51.982;9.226;2024-03-25T03:38:15;98987.03;;;5.74;100.00
21644;BME280;10983;51.982;9.226;2024-03-25T03:40:41;99000.88;;;5.70;100.00
21644;BME280;10983;51.982;9.226;2024-03-25T03:43:07;98995.81;;;5.68;100.00
21644;BME280;10983;51.982;9.226;2024-03-25T03:45:34;99011.41;;;5.70;100.00
21644;BME280;10983;51.982;9.226;2024-03-25T03:47:59;99013.50;;;5.68;100.00
21644;BME280;10983;51.982;9.226;2024-03-25T03:50:26;99008.31;;;5.61;100.00
21644;BME280;10983;51.982;9.226;2024-03-25T03:52:53;99003.16;;;5.66;100.00
21644;BME280;10983;51.982;9.226;2024-03-25T03:55:19;99012.25;;;5.70;100.00
21644;BME280;10983;51.982;9.226;2024-03-25T03:57:45;99003.06;;;5.73;100.00
21644;BME280;10983;51.982;9.226;2024-03-25T04:00:12;99007.53;;;5.72;100.00
21644;BME280;10983;51.982;9.226;2024-03-25T04:02:39;99009.72;;;5.75;100.00
21644;BME280;10983;51.982;9.226;2024-03-25T04:05:06;98999.38;;;5.74;100.00
21644;BME280;10983;51.982;9.226;2024-03-25T04:07:32;99013.53;;;5.79;100.00
21644;BME280;10983;51.982;9.226;2024-03-25T04:09:59;98999.00;;;5.77;100.00
21644;BME280;10983;51.982;9.226;2024-03-25T04:12:26;99004.66;;;5.74;100.00
21644;BME280;10983;51.982;9.226;2024-03-25T04:14:53;99007.94;;;5.76;100.00
21644;BME280;10983;51.982;9.226;2024-03-25T04:17:21;99010.75;;;5.74;100.00
21644;BME280;10983;51.982;9.226;2024-03-25T04:19:48;99015.66;;;5.71;100.00
21644;BME280;10983;51.982;9.226;2024-03-25T04:22:13;99006.72;;;5.72;100.00
21644;BME280;10983;51.982;9.226;2024-03-25T04:24:40;99025.88;;;5.67;100.00
21644;BME280;10983;51.982;9.226;2024-03-25T04:27:07;99011.16;;;5.60;100.00
21644;BME280;10983;51.982;9.226;2024-03-25T04:29:33;99023.75;;;5.58;100.00
21644;BME280;10983;51.982;9.226;2024-03-25T04:31:59;99013.09;;;5.53;100.00
21644;BME280;10983;51.982;9.226;2024-03-25T04:34:25;99020.63;;;5.50;100.00
21644;BME280;10983;51.982;9.226;2024-03-25T04:36:51;99020.06;;;5.48;100.00
21644;BME280;10983;51.982;9.226;2024-03-25T04:39:19;99023.19;;;5.56;100.00
21644;BME280;10983;51.982;9.226;2024-03-25T04:41:44;99026.75;;;5.61;100.00
21644;BME280;10983;51.982;9.226;2024-03-25T04:44:11;99021.63;;;5.66;100.00
21644;BME280;10983;51.982;9.226;2024-03-25T04:46:37;99031.94;;;5.68;100.00
21644;BME280;10983;51.982;9.226;2024-03-25T04:49:03;99034.72;;;5.73;100.00
21644;BME280;10983;51.982;9.226;2024-03-25T04:51:29;99022.56;;;5.72;100.00
21644;BME280;10983;51.982;9.226;2024-03-25T04:53:54;99036.94;;;5.76;100.00
21644;BME280;10983;51.982;9.226;2024-03-25T04:56:20;99036.47;;;5.79;100.00
21644;BME280;10983;51.982;9.226;2024-03-25T04:58:46;99041.19;;;5.77;100.00
21644;BME280;10983;51.982;9.226;2024-03-25T05:01:13;99047.69;;;5.74;100.00
21644;BME280;10983;51.982;9.226;2024-03-25T05:03:39;99037.50;;;5.78;100.00
21644;BME280;10983;51.982;9.226;2024-03-25T05:06:04;99042.19;;;5.76;100.00
21644;BME280;10983;51.982;9.226;2024-03-25T05:08:30;99042.41;;;5.74;100.00
21644;BME280;10983;51.982;9.226;2024-03-25T05:10:56;99056.59;;;5.73;100.00
21644;BME280;10983;51.982;9.226;2024-03-25T05:13:22;99054.75;;;5.74;100.00
21644;BME280;10983;51.982;9.226;2024-03-25T05:15:51;99049.94;;;5.71;100.00
21644;BME280;10983;51.982;9.226;2024-03-25T05:18:18;99056.69;;;5.67;100.00
21644;BME280;10983;51.982;9.226;2024-03-25T05:20:45;99053.13;;;5.61;100.00
21644;BME280;10983;51.982;9.226;2024-03-25T05:23:11;99063.59;;;5.68;100.00
21644;BME280;10983;51.982;9.226;2024-03-25T05:25:37;99065.75;;;5.71;100.00
21644;BME280;10983;51.982;9.226;2024-03-25T05:28:03;99070.25;;;5.70;100.00
21644;BME280;10983;51.982;9.226;2024-03-25T05:30:29;99064.53;;;5.73;100.00
21644;BME280;10983;51.982;9.226;2024-03-25T05:32:55;99065.63;;;5.66;100.00
21644;BME280;10983;51.982;9.226;2024-03-25T05:35:22;99067.84;;;5.69;100.00
21644;BME280;10983;51.982;9.226;2024-03-25T05:37:48;99062.09;;;5.72;100.00
21644;BME280;10983;51.982;9.226;2024-03-25T05:40:14;99074.81;;;5.63;100.00
21644;BME280;10983;51.982;9.226;2024-03-25T05:42:40;99060.66;;;5.76;100.00
21644;BME280;10983;51.982;9.226;2024-03-25T05:45:06;99064.16;;;5.88;100.00
21644;BME280;10983;51.982;9.226;2024-03-25T05:47:32;99048.50;;;5.75;100.00
21644;BME280;10983;51.982;9.226;2024-03-25T05:49:58;99068.50;;;5.82;100.00
21644;BME280;10983;51.982;9.226;2024-03-25T05:52:28;99065.13;;;5.75;100.00
21644;BME280;10983;51.982;9.226;2024-03-25T05:54:53;99070.97;;;5.77;100.00
21644;BME280;10983;51.982;9.226;2024-03-25T05:57:19;99074.63;;;5.76;100.00
21644;BME280;10983;51.982;9.226;2024-03-25T05:59:45;99079.75;;;5.71;100.00
21644;BME280;10983;51.982;9.226;2024-03-25T06:02:11;99071.22;;;5.58;100.00
21644;BME280;10983;51.982;9.226;2024-03-25T06:04:37;99085.13;;;5.65;100.00
21644;BME280;10983;51.982;9.226;2024-03-25T06:07:03;99076.53;;;5.69;100.00
21644;BME280;10983;51.982;9.226;2024-03-25T06:09:30;99081.03;;;5.69;100.00
21644;BME280;10983;51.982;9.226;2024-03-25T06:11:56;99087.22;;;5.74;100.00
21644;BME280;10983;51.982;9.226;2024-03-25T06:14:22;99091.28;;;5.77;100.00
21644;BME280;10983;51.982;9.226;2024-03-25T06:16:48;99086.81;;;5.77;100.00
21644;BME280;10983;51.982;9.226;2024-03-25T06:19:14;99096.34;;;5.78;100.00
21644;BME280;10983;51.982;9.226;2024-03-25T06:21:39;99099.41;;;5.75;100.00
21644;BME280;10983;51.982;9.226;2024-03-25T06:24:06;99098.66;;;5.68;100.00
21644;BME280;10983;51.982;9.226;2024-03-25T06:26:33;99099.47;;;5.69;100.00
21644;BME280;10983;51.982;9.226;2024-03-25T06:28:58;99113.00;;;5.72;100.00
21644;BME280;10983;51.982;9.226;2024-03-25T06:31:24;99112.16;;;5.78;100.00
21644;BME280;10983;51.982;9.226;2024-03-25T06:34:08;99122.72;;;5.78;100.00
21644;BME280;10983;51.982;9.226;2024-03-25T06:36:40;99120.94;;;5.90;100.00
21644;BME280;10983;51.982;9.226;2024-03-25T06:39:06;99124.81;;;5.88;100.00
21644;BME280;10983;51.982;9.226;2024-03-25T06:41:33;99135.84;;;5.96;100.00
21644;BME280;10983;51.982;9.226;2024-03-25T06:43:58;99133.19;;;5.96;100.00
21644;BME280;10983;51.982;9.226;2024-03-25T06:46:24;99136.16;;;5.88;100.00
21644;BME280;10983;51.982;9.226;2024-03-25T06:48:50;99154.41;;;5.90;100.00
21644;BME280;10983;51.982;9.226;2024-03-25T06:51:16;99159.44;;;5.91;100.00
21644;BME280;10983;51.982;9.226;2024-03-25T06:53:42;99167.13;;;5.93;100.00
21644;BME280;10983;51.982;9.226;2024-03-25T06:56:08;99171.00;;;6.08;100.00
21644;BME280;10983;51.982;9.226;2024-03-25T06:58:36;99179.13;;;6.07;100.00
21644;BME280;10983;51.982;9.226;2024-03-25T07:01:04;99178.91;;;6.08;100.00
21644;BME280;10983;51.982;9.226;2024-03-25T07:03:33;99187.41;;;6.10;100.00
21644;BME280;10983;51.982;9.226;2024-03-25T07:06:00;99195.13;;;6.23;100.00
21644;BME280;10983;51.982;9.226;2024-03-25T07:08:26;99193.81;;;6.32;100.00
21644;BME280;10983;51.982;9.226;2024-03-25T07:10:53;99212.97;;;6.39;100.00
21644;BME280;10983;51.982;9.226;2024-03-25T07:13:18;99218.41;;;6.55;100.00
21644;BME280;10983;51.982;9.226;2024-03-25T07:15:46;99227.72;;;6.58;100.00
21644;BME280;10983;51.982;9.226;2024-03-25T07:18:11;99230.59;;;6.56;100.00
21644;BME280;10983;51.982;9.226;2024-03-25T07:20:37;99239.06;;;6.47;100.00
21644;BME280;10983;51.982;9.226;2024-03-25T07:23:03;99247.59;;;6.49;100.00
21644;BME280;10983;51.982;9.226;2024-03-25T07:25:29;99250.47;;;6.59;100.00
21644;BME280;10983;51.982;9.226;2024-03-25T07:27:55;99261.78;;;6.77;100.00
21644;BME280;10983;51.982;9.226;2024-03-25T07:30:21;99251.59;;;7.03;100.00
21644;BME280;10983;51.982;9.226;2024-03-25T07:32:48;99273.56;;;7.15;100.00
21644;BME280;10983;51.982;9.226;2024-03-25T07:35:14;99282.09;;;7.28;100.00
21644;BME280;10983;51.982;9.226;2024-03-25T07:37:40;99290.50;;;7.37;100.00
21644;BME280;10983;51.982;9.226;2024-03-25T07:40:07;99290.38;;;7.55;100.00
21644;BME280;10983;51.982;9.226;2024-03-25T07:42:34;99303.28;;;7.63;100.00
21644;BME280;10983;51.982;9.226;2024-03-25T07:45:00;99311.56;;;7.43;100.00
21644;BME280;10983;51.982;9.226;2024-03-25T07:47:25;99317.28;;;7.40;100.00
21644;BME280;10983;51.982;9.226;2024-03-25T07:49:52;99308.78;;;7.61;100.00
21644;BME280;10983;51.982;9.226;2024-03-25T07:52:18;99328.59;;;7.70;100.00
21644;BME280;10983;51.982;9.226;2024-03-25T07:54:44;99330.66;;;7.80;100.00
21644;BME280;10983;51.982;9.226;2024-03-25T07:57:09;99335.38;;;7.89;100.00
21644;BME280;10983;51.982;9.226;2024-03-25T07:59:35;99341.78;;;7.81;100.00
21644;BME280;10983;51.982;9.226;2024-03-25T08:02:01;99339.03;;;8.22;100.00
21644;BME280;10983;51.982;9.226;2024-03-25T08:04:27;99345.81;;;8.30;100.00
21644;BME280;10983;51.982;9.226;2024-03-25T08:06:54;99341.81;;;8.55;100.00
21644;BME280;10983;51.982;9.226;2024-03-25T08:09:19;99359.63;;;8.71;100.00
21644;BME280;10983;51.982;9.226;2024-03-25T08:11:46;99371.25;;;8.42;100.00
21644;BME280;10983;51.982;9.226;2024-03-25T08:14:13;99377.34;;;8.08;100.00
21644;BME280;10983;51.982;9.226;2024-03-25T08:16:38;99380.13;;;8.02;100.00
21644;BME280;10983;51.982;9.226;2024-03-25T08:19:04;99385.31;;;7.74;100.00
21644;BME280;10983;51.982;9.226;2024-03-25T08:21:30;99386.63;;;7.42;100.00
21644;BME280;10983;51.982;9.226;2024-03-25T08:23:57;99386.53;;;7.49;100.00
21644;BME280;10983;51.982;9.226;2024-03-25T08:26:22;99399.16;;;7.47;100.00
21644;BME280;10983;51.982;9.226;2024-03-25T08:28:48;99383.53;;;7.45;100.00
21644;BME280;10983;51.982;9.226;2024-03-25T08:31:14;99397.16;;;7.72;100.00
21644;BME280;10983;51.982;9.226;2024-03-25T08:33:40;99399.13;;;8.22;100.00
21644;BME280;10983;51.982;9.226;2024-03-25T08:36:06;99391.19;;;8.22;100.00
21644;BME280;10983;51.982;9.226;2024-03-25T08:38:32;99413.25;;;7.93;100.00
21644;BME280;10983;51.982;9.226;2024-03-25T08:40:59;99405.91;;;8.40;100.00
21644;BME280;10983;51.982;9.226;2024-03-25T08:43:24;99400.88;;;8.78;100.00
21644;BME280;10983;51.982;9.226;2024-03-25T08:45:52;99402.91;;;9.15;100.00
21644;BME280;10983;51.982;9.226;2024-03-25T08:48:18;99393.94;;;9.33;100.00
21644;BME280;10983;51.982;9.226;2024-03-25T08:50:44;99401.13;;;9.49;100.00
21644;BME280;10983;51.982;9.226;2024-03-25T08:53:09;99398.88;;;9.90;100.00
21644;BME280;10983;51.982;9.226;2024-03-25T08:55:35;99397.56;;;9.92;100.00
21644;BME280;10983;51.982;9.226;2024-03-25T08:58:02;99411.81;;;9.53;100.00
21644;BME280;10983;51.982;9.226;2024-03-25T09:00:28;99413.03;;;8.91;100.00
21644;BME280;10983;51.982;9.226;2024-03-25T09:02:54;99403.66;;;8.72;100.00
21644;BME280;10983;51.982;9.226;2024-03-25T09:05:20;99418.09;;;9.20;100.00
21644;BME280;10983;51.982;9.226;2024-03-25T09:07:46;99422.47;;;9.26;100.00
21644;BME280;10983;51.982;9.226;2024-03-25T09:10:12;99422.56;;;10.07;100.00
21644;BME280;10983;51.982;9.226;2024-03-25T09:12:56;99423.94;;;10.48;100.00
21644;BME280;10983;51.982;9.226;2024-03-25T09:15:23;99428.91;;;11.03;100.00
21644;BME280;10983;51.982;9.226;2024-03-25T09:17:48;99427.31;;;11.28;100.00
21644;BME280;10983;51.982;9.226;2024-03-25T09:20:14;99452.75;;;11.19;100.00
21644;BME280;10983;51.982;9.226;2024-03-25T09:22:42;99455.88;;;10.31;100.00
21644;BME280;10983;51.982;9.226;2024-03-25T09:25:08;99463.59;;;10.00;100.00
21644;BME280;10983;51.982;9.226;2024-03-25T09:27:34;99460.97;;;10.16;100.00
21644;BME280;10983;51.982;9.226;2024-03-25T09:29:59;99468.44;;;10.03;100.00
21644;BME280;10983;51.982;9.226;2024-03-25T09:32:26;99470.38;;;10.07;100.00
21644;BME280;10983;51.982;9.226;2024-03-25T09:34:52;99461.34;;;10.25;100.00
21644;BME280;10983;51.982;9.226;2024-03-25T09:37:18;99467.25;;;10.64;100.00
21644;BME280;10983;51.982;9.226;2024-03-25T09:39:43;99468.78;;;10.44;100.00
21644;BME280;10983;51.982;9.226;2024-03-25T09:42:14;99476.13;;;10.54;100.00
21644;BME280;10983;51.982;9.226;2024-03-25T09:44:40;99480.94;;;10.57;100.00
21644;BME280;10983;51.982;9.226;2024-03-25T09:47:06;99496.00;;;10.89;100.00
21644;BME280;10983;51.982;9.226;2024-03-25T09:49:33;99516.00;;;10.91;100.00
21644;BME280;10983;51.982;9.226;2024-03-25T09:52:01;99506.84;;;10.28;100.00
21644;BME280;10983;51.982;9.226;2024-03-25T09:54:26;99502.47;;;10.22;100.00
21644;BME280;10983;51.982;9.226;2024-03-25T09:56:52;99511.72;;;10.36;100.00
21644;BME280;10983;51.982;9.226;2024-03-25T09:59:19;99507.00;;;10.76;100.00
21644;BME280;10983;51.982;9.226;2024-03-25T10:01:45;99510.44;;;10.93;100.00
21644;BME280;10983;51.982;9.226;2024-03-25T10:04:11;99508.69;;;10.82;100.00
21644;BME280;10983;51.982;9.226;2024-03-25T10:06:40;99504.81;;;11.11;100.00
21644;BME280;10983;51.982;9.226;2024-03-25T10:09:05;99506.75;;;12.51;100.00
21644;BME280;10983;51.982;9.226;2024-03-25T10:11:32;99504.88;;;13.54;100.00
21644;BME280;10983;51.982;9.226;2024-03-25T10:13:59;99518.44;;;13.43;100.00
21644;BME280;10983;51.982;9.226;2024-03-25T10:16:24;99516.94;;;13.61;100.00
21644;BME280;10983;51.982;9.226;2024-03-25T10:18:50;99518.38;;;11.78;100.00
21644;BME280;10983;51.982;9.226;2024-03-25T10:21:19;99532.75;;;10.54;100.00
21644;BME280;10983;51.982;9.226;2024-03-25T10:23:47;99526.78;;;10.14;100.00
21644;BME280;10983;51.982;9.226;2024-03-25T10:26:25;99515.28;;;10.25;100.00
21644;BME280;10983;51.982;9.226;2024-03-25T10:29:01;99516.25;;;10.73;100.00
21644;BME280;10983;51.982;9.226;2024-03-25T10:31:27;99515.97;;;11.77;100.00
21644;BME280;10983;51.982;9.226;2024-03-25T10:33:53;99497.31;;;12.03;100.00
21644;BME280;10983;51.982;9.226;2024-03-25T10:36:20;99493.91;;;11.55;100.00
21644;BME280;10983;51.982;9.226;2024-03-25T10:38:49;99511.75;;;11.80;100.00
21644;BME280;10983;51.982;9.226;2024-03-25T10:41:17;99496.91;;;12.57;100.00
21644;BME280;10983;51.982;9.226;2024-03-25T10:43:45;99500.00;;;12.80;100.00
21644;BME280;10983;51.982;9.226;2024-03-25T10:46:13;99487.25;;;13.48;100.00
21644;BME280;10983;51.982;9.226;2024-03-25T10:48:44;99480.84;;;13.54;100.00
21644;BME280;10983;51.982;9.226;2024-03-25T10:51:13;99487.81;;;12.94;100.00
21644;BME280;10983;51.982;9.226;2024-03-25T10:53:40;99487.22;;;13.43;100.00
21644;BME280;10983;51.982;9.226;2024-03-25T10:56:12;99465.28;;;14.95;100.00
21644;BME280;10983;51.982;9.226;2024-03-25T10:58:42;99491.91;;;14.27;100.00
21644;BME280;10983;51.982;9.226;2024-03-25T11:01:09;99494.34;;;13.18;100.00
21644;BME280;10983;51.982;9.226;2024-03-25T11:03:36;99492.63;;;12.56;100.00
21644;BME280;10983;51.982;9.226;2024-03-25T11:06:03;99484.97;;;12.64;100.00
21644;BME280;10983;51.982;9.226;2024-03-25T11:08:31;99488.19;;;13.12;100.00
21644;BME280;10983;51.982;9.226;2024-03-25T11:10:58;99473.16;;;14.42;100.00
21644;BME280;10983;51.982;9.226;2024-03-25T11:13:27;99471.84;;;14.24;100.00
21644;BME280;10983;51.982;9.226;2024-03-25T11:15:52;99473.69;;;13.99;100.00
21644;BME280;10983;51.982;9.226;2024-03-25T11:18:24;99454.22;;;15.11;100.00
21644;BME280;10983;51.982;9.226;2024-03-25T11:21:00;99480.91;;;14.53;100.00
21644;BME280;10983;51.982;9.226;2024-03-25T11:23:26;99485.50;;;12.25;100.00
21644;BME280;10983;51.982;9.226;2024-03-25T11:25:56;99477.28;;;11.69;100.00
21644;BME280;10983;51.982;9.226;2024-03-25T11:28:30;99479.56;;;11.13;100.00
21644;BME280;10983;51.982;9.226;2024-03-25T11:30:56;99478.38;;;11.04;100.00
21644;BME280;10983;51.982;9.226;2024-03-25T11:33:21;99470.66;;;11.03;100.00
21644;BME280;10983;51.982;9.226;2024-03-25T11:35:48;99457.44;;;10.49;100.00
21644;BME280;10983;51.982;9.226;2024-03-25T11:38:13;99463.06;;;10.90;100.00
21644;BME280;10983;51.982;9.226;2024-03-25T11:40:41;99460.56;;;11.26;100.00
21644;BME280;10983;51.982;9.226;2024-03-25T11:43:07;99436.91;;;11.82;100.00
21644;BME280;10983;51.982;9.226;2024-03-25T11:45:37;99464.47;;;11.66;100.00
21644;BME280;10983;51.982;9.226;2024-03-25T11:48:03;99458.03;;;11.15;100.00
21644;BME280;10983;51.982;9.226;2024-03-25T11:50:29;99466.03;;;11.62;100.00
21644;BME280;10983;51.982;9.226;2024-03-25T11:52:55;99453.94;;;11.28;100.00
21644;BME280;10983;51.982;9.226;2024-03-25T11:55:21;99469.09;;;11.07;100.00
21644;BME280;10983;51.982;9.226;2024-03-25T11:57:46;99462.88;;;10.75;100.00
21644;BME280;10983;51.982;9.226;2024-03-25T12:00:20;99453.47;;;10.89;100.00
21644;BME280;10983;51.982;9.226;2024-03-25T12:02:47;99449.00;;;11.16;100.00
21644;BME280;10983;51.982;9.226;2024-03-25T12:05:13;99438.16;;;11.22;100.00
21644;BME280;10983;51.982;9.226;2024-03-25T12:07:38;99442.13;;;10.77;100.00
21644;BME280;10983;51.982;9.226;2024-03-25T12:10:05;99447.25;;;10.62;100.00
21644;BME280;10983;51.982;9.226;2024-03-25T12:12:49;99445.28;;;11.17;100.00
21644;BME280;10983;51.982;9.226;2024-03-25T12:15:16;99442.38;;;11.66;100.00
21644;BME280;10983;51.982;9.226;2024-03-25T12:17:42;99431.97;;;13.83;100.00
21644;BME280;10983;51.982;9.226;2024-03-25T12:20:09;99436.63;;;15.00;100.00
21644;BME280;10983;51.982;9.226;2024-03-25T12:22:36;99439.44;;;13.56;100.00
21644;BME280;10983;51.982;9.226;2024-03-25T12:25:03;99425.00;;;12.77;100.00
21644;BME280;10983;51.982;9.226;2024-03-25T12:27:29;99440.13;;;13.17;100.00
21644;BME280;10983;51.982;9.226;2024-03-25T12:29:59;99438.00;;;13.19;100.00
21644;BME280;10983;51.982;9.226;2024-03-25T12:32:35;99431.38;;;12.66;100.00
21644;BME280;10983;51.982;9.226;2024-03-25T12:35:01;99422.06;;;11.91;100.00
21644;BME280;10983;51.982;9.226;2024-03-25T12:37:29;99423.59;;;11.29;100.00
21644;BME280;10983;51.982;9.226;2024-03-25T12:39:54;99418.47;;;11.76;100.00
21644;BME280;10983;51.982;9.226;2024-03-25T12:42:20;99415.38;;;11.57;100.00
21644;BME280;10983;51.982;9.226;2024-03-25T12:44:46;99410.53;;;11.80;100.00
21644;BME280;10983;51.982;9.226;2024-03-25T12:47:12;99405.22;;;11.80;100.00
21644;BME280;10983;51.982;9.226;2024-03-25T12:49:37;99404.03;;;11.40;100.00
21644;BME280;10983;51.982;9.226;2024-03-25T12:52:05;99398.03;;;11.55;100.00
21644;BME280;10983;51.982;9.226;2024-03-25T12:54:32;99409.69;;;12.57;100.00